createdAt,value
2018-08-03T00:01:54.111Z,95.10
2018-08-03T00:04:32.381Z,95.40
2018-08-03T00:07:13.180Z,95.40
2018-08-03T00:09:49.705Z,95.80
2018-08-03T00:12:39.459Z,95.90
2018-08-03T00:15:17.486Z,96.30
2018-08-03T00:17:50.308Z,96.40
2018-08-03T00:20:26.030Z,96.40
2018-08-03T00:22:58.736Z,96.60
2018-08-03T00:25:35.415Z,96.70
2018-08-03T00:28:17.228Z,96.90
2018-08-03T00:30:58.093Z,96.90
2018-08-03T00:33:35.007Z,96.90
2018-08-03T00:36:08.411Z,97.10
2018-08-03T00:38:46.874Z,97.40
2018-08-03T00:41:24.114Z,97.80
2018-08-03T00:44:11.507Z,97.50
2018-08-03T00:46:49.618Z,97.40
2018-08-03T00:49:31.303Z,97.30
2018-08-03T00:52:07.524Z,96.90
2018-08-03T00:54:41.872Z,96.90
2018-08-03T00:57:17.510Z,97.10
2018-08-03T00:59:52.695Z,97.10
2018-08-03T01:02:30.238Z,97.10
2018-08-03T01:05:01.122Z,97.00
2018-08-03T01:07:41.547Z,96.90
2018-08-03T01:10:14.899Z,97.30
2018-08-03T01:12:48.888Z,97.70
2018-08-03T01:15:26.164Z,97.40
2018-08-03T01:18:00.045Z,97.70
2018-08-03T01:20:32.873Z,98.10
2018-08-03T01:23:11.423Z,98.20
2018-08-03T01:25:53.361Z,98.50
2018-08-03T01:28:29.635Z,98.50
2018-08-03T01:31:04.461Z,98.50
2018-08-03T01:33:41.702Z,98.40
2018-08-03T01:36:16.806Z,98.40
2018-08-03T01:38:53.431Z,98.60
2018-08-03T01:41:40.003Z,98.40
2018-08-03T01:44:15.832Z,98.30
2018-08-03T01:46:53.376Z,98.50
2018-08-03T01:49:31.137Z,98.50
2018-08-03T01:52:05.002Z,98.40
2018-08-03T01:54:47.751Z,98.70
2018-08-03T01:57:23.046Z,98.60
2018-08-03T02:00:00.383Z,98.70
2018-08-03T02:02:36.098Z,99.10
2018-08-03T02:05:14.082Z,99.40
2018-08-03T02:07:51.205Z,99.60
2018-08-03T02:10:27.666Z,99.60
2018-08-03T02:13:01.794Z,99.80
2018-08-03T02:15:36.721Z,99.70
2018-08-03T02:18:06.966Z,99.90
2018-08-03T02:20:38.852Z,99.90
2018-08-03T02:23:12.032Z,99.90
2018-08-03T02:25:49.761Z,99.90
2018-08-03T02:28:25.415Z,99.90
2018-08-03T02:31:03.264Z,99.90
2018-08-03T02:33:37.838Z,99.90
2018-08-03T02:36:15.418Z,99.90
2018-08-03T02:38:54.420Z,99.90
2018-08-03T02:41:30.338Z,99.90
2018-08-03T02:44:04.049Z,99.90
2018-08-03T02:46:45.320Z,99.90
2018-08-03T02:49:22.196Z,99.90
2018-08-03T02:51:58.644Z,99.90
2018-08-03T02:54:38.320Z,99.90
2018-08-03T02:57:16.789Z,99.90
2018-08-03T02:59:52.242Z,99.90
2018-08-03T03:02:24.537Z,99.90
2018-08-03T03:05:02.911Z,99.90
2018-08-03T03:07:44.814Z,99.90
2018-08-03T03:13:06.777Z,99.90
2018-08-03T03:15:43.860Z,99.90
2018-08-03T03:18:20.076Z,99.90
2018-08-03T03:20:55.960Z,99.90
2018-08-03T03:31:26.855Z,99.90
2018-08-03T03:34:02.190Z,99.90
2018-08-03T03:36:42.333Z,99.90
2018-08-03T03:39:17.987Z,99.90
2018-08-03T03:41:49.643Z,99.90
2018-08-03T03:44:22.987Z,99.90
2018-08-03T03:46:56.511Z,99.90
2018-08-03T03:49:32.708Z,99.90
2018-08-03T03:54:38.921Z,99.90
2018-08-03T03:57:19.113Z,99.90
2018-08-03T03:59:55.710Z,99.90
2018-08-03T04:02:32.080Z,99.90
2018-08-03T04:05:08.073Z,99.90
2018-08-03T04:07:41.342Z,99.90
2018-08-03T04:10:15.229Z,99.90
2018-08-03T04:12:52.220Z,99.90
2018-08-03T04:15:26.311Z,99.90
2018-08-03T04:18:03.351Z,99.90
2018-08-03T04:20:41.406Z,99.90
2018-08-03T04:23:17.634Z,99.90
2018-08-03T04:25:57.081Z,99.90
2018-08-03T04:28:34.714Z,99.90
2018-08-03T04:31:11.083Z,99.90
2018-08-03T04:33:48.057Z,99.90
2018-08-03T04:36:26.542Z,99.90
2018-08-03T04:39:04.759Z,99.90
2018-08-03T04:41:39.988Z,99.90
2018-08-03T04:44:11.579Z,99.90
2018-08-03T04:46:46.084Z,99.90
2018-08-03T04:49:31.929Z,99.90
2018-08-03T04:52:09.039Z,99.90
2018-08-03T04:54:48.077Z,99.90
2018-08-03T04:57:38.121Z,99.30
2018-08-03T05:00:23.493Z,97.80
2018-08-03T05:03:04.017Z,97.10
2018-08-03T05:05:52.359Z,96.40
2018-08-03T05:08:40.716Z,95.30
2018-08-03T05:11:23.495Z,94.30
2018-08-03T05:14:06.662Z,93.40
2018-08-03T05:17:12.419Z,92.40
2018-08-03T05:19:50.249Z,91.60
2018-08-03T05:22:28.387Z,91.60
2018-08-03T05:25:00.588Z,91.10
2018-08-03T05:28:11.233Z,91.40
2018-08-03T05:30:49.850Z,90.90
2018-08-03T05:33:29.143Z,90.00
2018-08-03T05:36:05.730Z,87.30
2018-08-03T05:38:38.316Z,85.20
2018-08-03T05:41:22.114Z,83.50
2018-08-03T05:44:33.086Z,82.90
2018-08-03T05:47:11.471Z,80.80
2018-08-03T05:49:49.454Z,79.30
2018-08-03T05:52:26.963Z,76.80
2018-08-03T05:55:04.912Z,74.20
2018-08-03T06:01:43.792Z,69.10
2018-08-03T06:04:20.636Z,66.40
2018-08-03T06:07:04.363Z,64.50
2018-08-03T06:10:15.962Z,62.00
2018-08-03T06:18:15.876Z,60.70
2018-08-03T06:21:04.858Z,58.90
2018-08-03T06:24:24.708Z,56.10
2018-08-03T06:27:07.463Z,54.80
2018-08-03T06:29:47.000Z,54.50
2018-08-03T06:32:27.983Z,53.90
2018-08-03T06:35:07.750Z,53.20
2018-08-03T06:37:59.246Z,52.60
2018-08-03T06:40:41.646Z,51.40
2018-08-03T06:43:25.662Z,50.80
2018-08-03T06:46:52.817Z,50.20
2018-08-03T06:49:47.283Z,49.50
2018-08-03T06:58:10.600Z,47.60
2018-08-03T07:01:02.065Z,47.10
2018-08-03T07:03:44.930Z,46.10
2018-08-03T07:06:26.104Z,45.10
2018-08-03T07:15:21.245Z,44.00
2018-08-03T07:19:09.964Z,44.80
2018-08-03T07:21:50.188Z,41.90
2018-08-03T07:24:39.096Z,41.90
2018-08-03T07:30:22.645Z,42.30
2018-08-03T07:39:39.499Z,41.50
2018-08-03T07:42:21.020Z,41.10
2018-08-03T07:47:49.053Z,39.70
2018-08-03T07:56:32.508Z,39.20
2018-08-03T07:59:24.451Z,39.40
2018-08-03T08:02:19.009Z,38.70
2018-08-03T08:05:03.548Z,39.00
2018-08-03T08:07:50.965Z,38.70
2018-08-03T08:10:36.540Z,37.80
2018-08-03T08:13:22.332Z,37.80
2018-08-03T08:16:13.132Z,37.80
2018-08-03T08:19:01.039Z,37.60
2018-08-03T08:29:42.725Z,37.20
2018-08-03T08:32:34.580Z,36.50
2018-08-03T08:35:25.073Z,36.00
2018-08-03T08:38:09.410Z,35.70
2018-08-03T08:40:44.960Z,35.70
2018-08-03T08:46:16.582Z,36.00
2018-08-03T09:00:17.560Z,35.80
2018-08-03T09:03:05.299Z,35.80
2018-08-03T09:05:48.453Z,35.70
2018-08-03T09:08:31.377Z,34.70
2018-08-03T09:11:29.472Z,35.40
2018-08-03T09:14:38.276Z,36.00
2018-08-03T09:17:21.484Z,36.30
2018-08-03T09:40:19.477Z,36.50
2018-08-03T09:43:03.238Z,36.40
2018-08-03T09:49:05.018Z,37.00
2018-08-03T09:51:54.733Z,36.50
2018-08-03T10:01:34.254Z,36.80
2018-08-03T10:04:28.287Z,36.30
2018-08-03T10:10:18.709Z,36.00
2018-08-03T10:22:25.724Z,37.00
2018-08-03T10:25:20.642Z,37.10
2018-08-03T10:31:27.261Z,39.30
2018-08-03T10:34:15.228Z,39.10
2018-08-03T23:01:00.329Z,87.40
2018-08-03T23:03:42.185Z,88.50
2018-08-03T23:06:34.493Z,89.50
2018-08-03T23:18:00.925Z,91.30
2018-08-03T23:32:35.710Z,91.80
2018-08-03T23:38:09.574Z,92.40
2018-08-03T23:40:54.348Z,92.30
2018-08-03T23:43:31.174Z,92.70
2018-08-03T23:48:56.545Z,92.40
